createdAt,value
2019-02-27T00:01:54.899Z,42.87
2019-02-27T00:04:23.395Z,40.03
2019-02-27T00:06:51.833Z,38.40
2019-02-27T00:09:20.275Z,39.03
2019-02-27T00:11:48.704Z,47.80
2019-02-27T00:14:17.256Z,48.73
2019-02-27T00:16:45.679Z,40.50
2019-02-27T00:19:33.467Z,37.33
2019-02-27T00:22:01.917Z,40.03
2019-02-27T00:24:30.619Z,39.50
2019-02-27T00:26:59.083Z,41.60
2019-02-27T00:29:28.976Z,43.07
2019-02-27T00:31:57.686Z,50.13
2019-02-27T00:34:38.020Z,41.77
2019-02-27T00:37:06.476Z,44.80
2019-02-27T00:39:34.899Z,41.80
2019-02-27T00:42:03.330Z,43.33
2019-02-27T00:44:34.015Z,45.00
2019-02-27T00:47:01.915Z,46.87
2019-02-27T00:49:32.347Z,42.07
2019-02-27T00:52:00.603Z,42.30
2019-02-27T00:54:32.074Z,44.80
2019-02-27T00:57:00.527Z,41.33
2019-02-27T00:59:32.929Z,46.27
2019-02-27T01:01:59.125Z,45.07
2019-02-27T01:04:27.569Z,44.63
2019-02-27T01:06:55.988Z,48.23
2019-02-27T01:09:24.434Z,41.90
2019-02-27T01:11:52.845Z,41.07
2019-02-27T01:14:36.950Z,40.77
2019-02-27T01:17:03.882Z,42.20
2019-02-27T01:19:32.302Z,44.37
2019-02-27T01:22:20.091Z,43.53
2019-02-27T01:25:08.038Z,46.60
2019-02-27T01:27:38.097Z,44.43
2019-02-27T01:33:30.853Z,45.37
2019-02-27T01:35:59.315Z,54.53
2019-02-27T01:38:27.747Z,44.90
2019-02-27T01:40:56.201Z,40.37
2019-02-27T01:43:44.250Z,43.40
2019-02-27T01:46:27.756Z,44.83
2019-02-27T01:48:55.577Z,45.90
2019-02-27T01:51:25.771Z,57.07
2019-02-27T01:53:54.155Z,47.07
2019-02-27T01:56:22.588Z,47.50
2019-02-27T01:58:51.060Z,45.17
2019-02-27T02:01:19.485Z,43.67
2019-02-27T02:03:48.177Z,44.77
2019-02-27T02:06:16.653Z,42.00
2019-02-27T02:09:08.957Z,51.20
2019-02-27T02:11:37.444Z,46.13
2019-02-27T02:14:14.606Z,44.60
2019-02-27T02:17:20.165Z,50.63
2019-02-27T02:20:00.384Z,54.80
2019-02-27T02:22:31.880Z,46.37
2019-02-27T02:25:15.456Z,44.67
2019-02-27T02:27:49.631Z,43.50
2019-02-27T02:34:08.019Z,43.10
2019-02-27T02:36:39.557Z,52.60
2019-02-27T02:39:22.916Z,52.03
2019-02-27T02:42:06.413Z,37.13
2019-02-27T02:44:49.920Z,47.27
2019-02-27T02:47:24.181Z,44.03
2019-02-27T02:49:55.695Z,44.17
2019-02-27T02:53:12.129Z,40.10
2019-02-27T02:55:55.311Z,46.33
2019-02-27T02:58:38.832Z,43.80
2019-02-27T03:01:13.916Z,41.33
2019-02-27T03:03:46.120Z,43.07
2019-02-27T03:06:47.588Z,44.13
2019-02-27T03:09:37.217Z,46.57
2019-02-27T03:12:08.791Z,40.63
2019-02-27T03:15:04.056Z,46.53
2019-02-27T03:17:54.817Z,42.80
2019-02-27T03:20:44.730Z,42.73
2019-02-27T03:23:52.200Z,53.90
2019-02-27T03:26:54.267Z,42.20
2019-02-27T03:29:37.860Z,44.37
2019-02-27T03:32:44.896Z,47.50
2019-02-27T03:35:43.128Z,45.83
2019-02-27T03:38:37.073Z,47.87
2019-02-27T03:41:30.993Z,49.20
2019-02-27T03:44:26.289Z,51.40
2019-02-27T03:47:16.836Z,43.43
2019-02-27T03:50:02.030Z,47.30
2019-02-27T03:55:57.869Z,44.60
2019-02-27T03:58:41.543Z,45.60
2019-02-27T04:01:32.559Z,44.83
2019-02-27T04:04:12.919Z,47.33
2019-02-27T04:07:18.690Z,49.30
2019-02-27T04:09:47.125Z,44.10
2019-02-27T04:12:16.619Z,45.43
2019-02-27T04:14:45.792Z,44.70
2019-02-27T04:17:14.268Z,48.47
2019-02-27T04:19:42.765Z,46.80
2019-02-27T04:22:11.184Z,46.57
2019-02-27T04:24:39.738Z,44.57
2019-02-27T04:27:08.155Z,43.93
2019-02-27T04:29:40.875Z,47.17
2019-02-27T04:32:09.605Z,54.10
2019-02-27T04:34:36.924Z,48.30
2019-02-27T04:37:05.343Z,50.90
2019-02-27T04:39:35.806Z,44.03
2019-02-27T04:42:03.934Z,66.87
2019-02-27T04:44:32.396Z,47.30
2019-02-27T04:47:06.475Z,43.17
2019-02-27T04:49:37.712Z,48.97
2019-02-27T04:52:05.066Z,49.33
2019-02-27T04:54:35.073Z,47.57
2019-02-27T04:57:03.762Z,57.30
2019-02-27T04:59:32.216Z,51.03
2019-02-27T05:02:00.655Z,48.00
2019-02-27T05:04:29.170Z,54.33
2019-02-27T05:06:57.637Z,44.67
2019-02-27T05:09:26.112Z,46.50
2019-02-27T05:11:54.518Z,42.73
2019-02-27T05:14:24.847Z,38.93
2019-02-27T05:16:53.178Z,43.17
2019-02-27T05:19:21.603Z,44.60
2019-02-27T05:21:52.243Z,34.60
2019-02-27T05:24:20.211Z,35.40
2019-02-27T05:26:48.647Z,35.53
2019-02-27T05:29:37.558Z,36.47
2019-02-27T05:32:06.667Z,37.90
2019-02-27T05:34:35.088Z,37.87
2019-02-27T05:37:05.311Z,37.17
2019-02-27T05:39:53.043Z,53.90
2019-02-27T05:42:21.503Z,49.23
2019-02-27T05:44:50.301Z,40.53
2019-02-27T05:47:18.796Z,37.30
2019-02-27T05:49:47.238Z,43.50
2019-02-27T05:52:15.651Z,29.57
2019-02-27T05:55:05.947Z,45.03
2019-02-27T05:57:33.682Z,32.67
2019-02-27T06:00:03.377Z,41.37
2019-02-27T06:02:32.047Z,32.90
2019-02-27T06:05:06.874Z,34.80
2019-02-27T06:07:35.354Z,33.47
2019-02-27T06:10:05.871Z,32.10
2019-02-27T06:12:34.471Z,33.07
2019-02-27T06:15:03.835Z,36.23
2019-02-27T06:17:42.910Z,38.00
2019-02-27T06:20:02.419Z,36.57
2019-02-27T06:22:31.103Z,35.47
2019-02-27T06:25:00.806Z,40.57
2019-02-27T06:27:29.247Z,34.20
2019-02-27T06:29:59.690Z,35.23
2019-02-27T06:32:27.891Z,38.93
2019-02-27T06:34:59.280Z,31.83
2019-02-27T06:37:26.607Z,33.13
2019-02-27T06:39:55.042Z,36.53
2019-02-27T06:42:23.564Z,33.17
2019-02-27T06:45:13.234Z,30.93
2019-02-27T06:47:41.959Z,31.60
2019-02-27T06:50:17.838Z,31.83
2019-02-27T06:52:46.274Z,31.93
2019-02-27T06:55:15.356Z,40.30
2019-02-27T06:57:44.047Z,31.17
2019-02-27T07:00:15.567Z,32.63
2019-02-27T07:03:03.344Z,32.13
2019-02-27T07:05:31.791Z,35.53
2019-02-27T07:08:02.147Z,27.50
2019-02-27T07:10:30.406Z,33.70
2019-02-27T07:12:58.841Z,33.83
2019-02-27T07:15:27.325Z,29.73
2019-02-27T07:17:55.809Z,30.93
2019-02-27T07:20:25.228Z,27.40
2019-02-27T07:22:55.297Z,28.33
2019-02-27T07:25:23.731Z,30.90
2019-02-27T07:27:52.252Z,29.13
2019-02-27T07:30:21.261Z,39.97
2019-02-27T07:32:49.700Z,33.20
2019-02-27T07:35:18.537Z,33.63
2019-02-27T07:37:48.166Z,32.20
2019-02-27T07:40:20.660Z,34.70
2019-02-27T07:42:49.253Z,36.77
2019-02-27T07:45:19.015Z,39.40
2019-02-27T07:47:47.426Z,25.43
2019-02-27T07:50:35.213Z,37.13
2019-02-27T07:53:03.651Z,30.43
2019-02-27T07:55:32.064Z,35.40
2019-02-27T07:58:02.920Z,30.23
2019-02-27T08:00:31.392Z,30.37
2019-02-27T08:03:00.000Z,30.03
2019-02-27T08:05:29.189Z,27.00
2019-02-27T08:08:17.091Z,30.77
2019-02-27T08:10:45.516Z,27.40
2019-02-27T08:13:13.962Z,28.63
2019-02-27T08:15:42.379Z,28.37
2019-02-27T08:18:10.876Z,32.50
2019-02-27T08:20:39.419Z,28.27
2019-02-27T08:23:08.719Z,34.20
2019-02-27T08:25:37.169Z,27.67
2019-02-27T08:28:05.603Z,33.33
2019-02-27T08:30:53.438Z,30.37
2019-02-27T08:33:41.227Z,35.30
2019-02-27T08:36:09.655Z,28.80
2019-02-27T08:38:57.440Z,27.30
2019-02-27T08:41:25.859Z,30.23
2019-02-27T08:44:13.655Z,30.20
2019-02-27T08:46:42.109Z,35.13
2019-02-27T08:49:31.798Z,31.83
2019-02-27T08:52:00.035Z,30.17
2019-02-27T08:54:32.177Z,27.83
2019-02-27T08:56:58.631Z,31.33
2019-02-27T08:59:27.072Z,27.70
2019-02-27T09:02:01.154Z,39.97
2019-02-27T09:04:29.637Z,32.23
2019-02-27T09:07:02.129Z,27.57
2019-02-27T09:09:51.185Z,31.30
2019-02-27T09:12:18.002Z,28.87
2019-02-27T09:14:46.461Z,35.80
2019-02-27T09:17:14.900Z,33.20
2019-02-27T09:19:45.508Z,31.40
2019-02-27T09:22:14.990Z,31.10
2019-02-27T09:24:43.797Z,31.87
2019-02-27T09:27:12.267Z,40.00
2019-02-27T09:29:40.696Z,28.17
2019-02-27T09:32:11.406Z,35.20
2019-02-27T09:34:39.675Z,30.83
2019-02-27T09:37:08.137Z,31.40
2019-02-27T09:39:36.556Z,30.83
2019-02-27T09:45:00.735Z,33.50
2019-02-27T09:47:29.341Z,28.90
2019-02-27T09:49:57.848Z,29.23
2019-02-27T09:52:27.792Z,28.60
2019-02-27T09:54:56.469Z,30.83
2019-02-27T09:57:44.268Z,31.60
2019-02-27T10:00:41.876Z,30.10
2019-02-27T10:03:10.315Z,34.60
2019-02-27T10:08:27.554Z,31.57
2019-02-27T10:10:55.992Z,32.57
2019-02-27T10:13:24.444Z,33.20
2019-02-27T10:16:12.243Z,31.07
2019-02-27T10:18:40.719Z,34.07
2019-02-27T10:21:28.503Z,38.03
2019-02-27T10:23:57.007Z,35.57
2019-02-27T10:26:25.464Z,29.93
2019-02-27T10:28:53.886Z,43.63
2019-02-27T10:31:41.695Z,34.90
2019-02-27T10:34:10.128Z,37.23
2019-02-27T10:36:39.343Z,34.97
2019-02-27T10:39:08.209Z,36.63
2019-02-27T10:41:36.672Z,33.90
2019-02-27T10:44:05.143Z,32.20
2019-02-27T10:46:33.624Z,31.77
2019-02-27T10:49:02.123Z,29.97
2019-02-27T10:51:30.651Z,29.47
2019-02-27T10:54:01.904Z,33.90
2019-02-27T10:59:30.516Z,35.83
2019-02-27T11:01:58.942Z,32.27
2019-02-27T11:04:27.379Z,34.10
2019-02-27T11:06:55.828Z,30.23
2019-02-27T11:09:26.438Z,31.03
2019-02-27T11:11:55.103Z,34.60
2019-02-27T11:14:24.381Z,28.80
2019-02-27T11:17:12.171Z,36.57
2019-02-27T11:19:40.594Z,30.53
2019-02-27T11:22:09.063Z,35.27
2019-02-27T11:24:37.651Z,31.37
2019-02-27T11:27:09.002Z,29.97
2019-02-27T11:29:59.609Z,83.63
2019-02-27T11:32:27.024Z,241.20
2019-02-27T11:34:55.479Z,37.10
2019-02-27T11:37:23.906Z,51.80
2019-02-27T11:39:52.371Z,39.67
2019-02-27T11:42:40.173Z,32.60
2019-02-27T11:45:11.693Z,39.27
2019-02-27T11:47:59.486Z,42.70
2019-02-27T11:50:27.930Z,37.17
2019-02-27T11:52:56.388Z,34.77
2019-02-27T11:55:24.835Z,32.07
2019-02-27T11:57:53.378Z,34.53
2019-02-27T12:00:34.046Z,39.00
2019-02-27T12:03:02.468Z,32.70
2019-02-27T12:05:34.011Z,33.63
2019-02-27T12:08:01.153Z,31.27
2019-02-27T12:10:31.742Z,31.70
2019-02-27T12:13:01.401Z,33.20
2019-02-27T12:15:31.444Z,36.30
2019-02-27T12:18:19.227Z,32.30
2019-02-27T12:20:47.716Z,37.13
2019-02-27T12:23:16.205Z,30.50
2019-02-27T12:25:44.671Z,34.27
2019-02-27T12:28:15.236Z,39.17
2019-02-27T12:30:43.539Z,30.40
2019-02-27T12:33:31.335Z,41.37
2019-02-27T12:35:59.816Z,31.50
2019-02-27T12:38:28.391Z,30.60
2019-02-27T12:41:16.223Z,36.23
2019-02-27T12:43:44.652Z,35.73
2019-02-27T12:46:13.095Z,39.30
2019-02-27T12:49:00.888Z,32.60
2019-02-27T12:51:29.319Z,31.40
2019-02-27T12:53:57.762Z,33.73
2019-02-27T12:56:26.190Z,30.17
2019-02-27T12:58:58.236Z,30.23
2019-02-27T13:01:24.869Z,29.30
2019-02-27T13:03:53.304Z,28.90
2019-02-27T13:06:41.074Z,34.40
2019-02-27T13:09:15.399Z,37.63
2019-02-27T13:12:03.166Z,35.30
2019-02-27T13:14:33.280Z,30.57
2019-02-27T13:17:01.765Z,40.83
2019-02-27T13:19:30.264Z,38.30
2019-02-27T13:21:58.710Z,32.87
2019-02-27T13:24:27.204Z,31.07
2019-02-27T13:26:55.657Z,28.83
2019-02-27T13:29:24.065Z,32.30
2019-02-27T13:31:52.521Z,29.90
2019-02-27T13:34:25.271Z,33.53
2019-02-27T13:37:13.064Z,39.30
2019-02-27T13:39:47.483Z,39.93
2019-02-27T13:42:18.346Z,39.00
2019-02-27T13:48:05.930Z,38.90
2019-02-27T13:50:33.650Z,41.23
2019-02-27T13:53:02.109Z,36.30
2019-02-27T13:55:30.616Z,40.10
2019-02-27T13:58:03.444Z,35.60
2019-02-27T14:00:37.855Z,38.20
2019-02-27T14:03:25.651Z,32.50
2019-02-27T14:05:54.072Z,29.77
2019-02-27T14:08:43.825Z,27.30
2019-02-27T14:11:24.890Z,27.17
2019-02-27T14:13:54.191Z,27.13
2019-02-27T14:16:22.647Z,30.10
2019-02-27T14:18:51.130Z,23.00
2019-02-27T14:21:19.570Z,20.80
2019-02-27T14:23:48.104Z,15.10
2019-02-27T14:26:16.552Z,21.97
2019-02-27T14:28:44.991Z,15.60
2019-02-27T14:31:13.435Z,25.87
2019-02-27T14:34:01.271Z,18.80
2019-02-27T14:36:29.706Z,17.30
2019-02-27T14:38:58.192Z,20.13
2019-02-27T14:41:48.780Z,16.03
2019-02-27T14:44:16.155Z,16.07
2019-02-27T14:47:03.944Z,18.37
2019-02-27T14:49:44.928Z,17.60
2019-02-27T14:52:25.446Z,24.23
2019-02-27T14:55:06.152Z,21.20
2019-02-27T14:57:34.597Z,27.23
2019-02-27T15:00:05.603Z,24.27
2019-02-27T15:02:55.543Z,20.10
2019-02-27T15:05:23.261Z,19.83
2019-02-27T15:08:11.115Z,26.97
2019-02-27T15:10:51.968Z,22.30
2019-02-27T15:13:20.415Z,22.20
2019-02-27T15:15:48.840Z,27.53
2019-02-27T15:18:36.627Z,22.13
2019-02-27T15:21:05.129Z,23.90
2019-02-27T15:23:33.590Z,32.30
2019-02-27T15:26:02.056Z,26.63
2019-02-27T15:28:33.292Z,34.73
2019-02-27T15:31:21.409Z,32.20
2019-02-27T15:33:50.196Z,21.03
2019-02-27T15:36:18.644Z,20.70
2019-02-27T15:38:47.067Z,21.03
2019-02-27T15:41:35.421Z,23.17
2019-02-27T15:44:23.919Z,30.43
2019-02-27T15:46:53.503Z,32.37
2019-02-27T15:49:22.510Z,23.67
2019-02-27T15:51:50.931Z,27.93
2019-02-27T15:54:38.768Z,27.47
2019-02-27T15:57:07.223Z,29.73
2019-02-27T15:59:40.821Z,25.67
2019-02-27T16:02:17.775Z,25.57
2019-02-27T16:04:58.360Z,27.50
2019-02-27T16:07:26.819Z,34.17
2019-02-27T16:10:27.208Z,44.83
2019-02-27T16:13:15.015Z,34.30
2019-02-27T16:15:44.734Z,35.40
2019-02-27T16:18:13.810Z,39.70
2019-02-27T16:21:01.822Z,45.37
2019-02-27T16:23:49.615Z,46.97
2019-02-27T16:26:18.044Z,30.53
2019-02-27T16:28:48.907Z,36.80
2019-02-27T16:31:16.651Z,43.17
2019-02-27T16:33:45.103Z,28.17
2019-02-27T16:36:36.127Z,28.47
2019-02-27T16:39:15.543Z,29.10
2019-02-27T16:41:45.094Z,28.13
2019-02-27T16:44:33.147Z,37.93
2019-02-27T16:47:03.529Z,31.67
2019-02-27T16:49:31.749Z,40.30
2019-02-27T16:52:00.295Z,36.73
2019-02-27T16:54:48.343Z,32.33
2019-02-27T16:57:24.474Z,35.50
2019-02-27T16:59:57.846Z,40.00
2019-02-27T17:02:30.809Z,51.73
2019-02-27T17:05:08.783Z,47.87
2019-02-27T17:10:38.847Z,39.27
2019-02-27T17:13:07.266Z,39.00
2019-02-27T17:15:36.421Z,47.53
2019-02-27T17:18:27.923Z,63.50
2019-02-27T17:20:54.702Z,47.40
2019-02-27T17:23:23.147Z,43.43
2019-02-27T17:26:10.939Z,42.57
2019-02-27T17:28:39.358Z,54.43
2019-02-27T17:31:11.786Z,89.60
2019-02-27T17:33:38.629Z,57.37
2019-02-27T17:36:07.417Z,48.33
2019-02-27T17:38:35.931Z,47.30
2019-02-27T17:41:23.737Z,51.77
2019-02-27T17:43:52.178Z,50.23
2019-02-27T17:46:23.288Z,51.27
2019-02-27T17:49:11.078Z,48.20
2019-02-27T17:51:40.443Z,58.43
2019-02-27T17:54:09.139Z,51.03
2019-02-27T17:56:56.904Z,41.53
2019-02-27T17:59:29.024Z,40.57
2019-02-27T18:01:58.840Z,49.57
2019-02-27T18:04:27.719Z,42.13
2019-02-27T18:06:58.685Z,44.70
2019-02-27T18:09:27.214Z,46.80
2019-02-27T18:11:55.787Z,42.77
2019-02-27T18:14:46.755Z,47.03
2019-02-27T18:17:13.799Z,43.40
2019-02-27T18:20:01.598Z,44.40
2019-02-27T18:22:42.007Z,41.67
2019-02-27T18:25:22.887Z,44.30
2019-02-27T18:28:03.516Z,60.37
2019-02-27T18:30:32.045Z,49.27
2019-02-27T18:33:19.830Z,43.53
2019-02-27T18:35:48.279Z,48.90
2019-02-27T18:38:16.754Z,45.63
2019-02-27T18:41:04.583Z,41.60
2019-02-27T18:43:33.048Z,43.83
2019-02-27T18:46:01.496Z,47.23
2019-02-27T18:48:29.925Z,43.73
2019-02-27T18:50:58.647Z,47.63
2019-02-27T18:53:48.298Z,49.13
2019-02-27T18:56:17.162Z,43.50
2019-02-27T18:58:45.620Z,44.77
2019-02-27T19:01:14.401Z,44.50
2019-02-27T19:03:42.881Z,46.30
2019-02-27T19:06:30.642Z,48.77
2019-02-27T19:09:11.622Z,50.93
2019-02-27T19:11:40.107Z,46.30
2019-02-27T19:14:27.912Z,43.40
2019-02-27T19:16:56.718Z,50.67
2019-02-27T19:19:48.210Z,50.10
2019-02-27T19:22:34.020Z,61.33
2019-02-27T19:25:14.809Z,53.50
2019-02-27T19:27:43.327Z,57.87
2019-02-27T19:30:14.692Z,56.07
2019-02-27T19:32:43.199Z,53.37
2019-02-27T19:35:11.847Z,54.23
2019-02-27T19:37:40.307Z,55.63
2019-02-27T19:40:30.589Z,57.27
2019-02-27T19:43:18.138Z,59.23
2019-02-27T19:45:47.827Z,58.97
2019-02-27T19:51:30.953Z,52.97
2019-02-27T19:56:55.247Z,65.17
2019-02-27T19:59:24.891Z,57.90
2019-02-27T20:01:55.675Z,62.57
2019-02-27T20:04:24.138Z,58.40
2019-02-27T20:06:53.067Z,57.90
2019-02-27T20:09:22.036Z,52.10
2019-02-27T20:11:50.499Z,65.37
2019-02-27T20:14:18.987Z,61.07
2019-02-27T20:16:47.520Z,59.47
2019-02-27T20:19:22.450Z,62.77
2019-02-27T20:21:46.511Z,57.47
2019-02-27T20:24:35.587Z,68.93
2019-02-27T20:27:04.714Z,68.83
2019-02-27T20:29:33.542Z,63.97
2019-02-27T20:32:09.743Z,72.90
2019-02-27T20:34:38.606Z,56.00
2019-02-27T20:37:13.300Z,63.30
2019-02-27T20:39:41.787Z,63.87
2019-02-27T20:42:13.646Z,66.57
2019-02-27T20:44:40.922Z,64.50
2019-02-27T20:47:09.622Z,69.80
2019-02-27T20:49:38.488Z,63.97
2019-02-27T20:52:07.222Z,69.03
2019-02-27T20:54:35.736Z,67.23
2019-02-27T20:57:23.527Z,68.23
2019-02-27T20:59:52.496Z,61.83
2019-02-27T21:02:40.518Z,69.73
2019-02-27T21:05:11.599Z,71.27
2019-02-27T21:07:40.219Z,69.47
2019-02-27T21:10:20.885Z,66.00
2019-02-27T21:12:53.917Z,64.50
2019-02-27T21:15:29.295Z,72.83
2019-02-27T21:18:00.638Z,67.20
2019-02-27T21:20:39.370Z,64.60
2019-02-27T21:23:09.221Z,57.57
2019-02-27T21:25:37.996Z,67.00
2019-02-27T21:28:07.626Z,77.83
2019-02-27T21:30:36.419Z,71.13
2019-02-27T21:33:04.876Z,71.30
2019-02-27T21:35:33.330Z,67.37
2019-02-27T21:38:01.839Z,64.10
2019-02-27T21:40:49.635Z,71.47
2019-02-27T21:43:18.091Z,70.03
2019-02-27T21:45:46.590Z,77.87
2019-02-27T21:48:15.035Z,67.07
2019-02-27T21:50:45.214Z,70.50
2019-02-27T21:53:13.657Z,63.80
2019-02-27T21:55:44.692Z,82.03
2019-02-27T21:58:20.077Z,72.70
2019-02-27T22:00:45.012Z,64.67
2019-02-27T22:03:12.588Z,70.53
2019-02-27T22:05:52.546Z,78.90
2019-02-27T22:08:19.067Z,70.23
2019-02-27T22:10:53.086Z,65.13
2019-02-27T22:13:28.624Z,71.90
2019-02-27T22:15:47.956Z,77.23
2019-02-27T22:18:16.393Z,75.43
2019-02-27T22:21:04.177Z,72.80
2019-02-27T22:23:32.683Z,69.60
2019-02-27T22:26:03.083Z,65.57
2019-02-27T22:28:31.270Z,73.00
2019-02-27T22:30:59.742Z,67.30
2019-02-27T22:33:28.167Z,70.90
2019-02-27T22:35:56.595Z,73.83
2019-02-27T22:38:26.590Z,75.07
2019-02-27T22:40:55.390Z,78.27
2019-02-27T22:43:23.842Z,71.53
2019-02-27T22:45:52.364Z,76.60
2019-02-27T22:48:20.806Z,76.27
2019-02-27T22:50:49.230Z,68.77
2019-02-27T22:53:17.687Z,70.40
2019-02-27T22:55:46.123Z,72.27
2019-02-27T22:58:14.579Z,77.83
2019-02-27T23:01:01.664Z,76.27
2019-02-27T23:03:50.811Z,68.13
2019-02-27T23:06:31.020Z,76.27
2019-02-27T23:08:59.543Z,66.40
2019-02-27T23:11:28.068Z,78.87
2019-02-27T23:13:56.528Z,69.97
2019-02-27T23:16:25.100Z,76.60
2019-02-27T23:19:13.160Z,71.30
2019-02-27T23:21:41.684Z,77.00
2019-02-27T23:24:22.158Z,76.33
2019-02-27T23:26:54.359Z,74.53
2019-02-27T23:29:20.756Z,71.40
2019-02-27T23:31:49.194Z,74.90
2019-02-27T23:34:17.712Z,80.03
2019-02-27T23:36:46.148Z,77.43
2019-02-27T23:39:14.668Z,80.43
2019-02-27T23:41:43.091Z,66.57
2019-02-27T23:44:12.192Z,75.20
2019-02-27T23:46:48.828Z,74.67
2019-02-27T23:49:10.919Z,71.07
2019-02-27T23:51:58.699Z,75.73
2019-02-27T23:54:27.144Z,75.93
2019-02-27T23:56:55.558Z,70.97
2019-02-27T23:59:24.002Z,86.77
